Главная страница
METAR-TAF:

METAR-TAF

Аэропорты :

Шанлыурфа, Турция

широта: 37-27N, долгота: 38-54E, высота над уровнем моря: 823 м

Текущие метеонаблюдения

Эта сводка был подготовлена 25 минут назад, в 23:50 UTC
Ветер 6 Узел от северо-восточный
Температура 18°C
Влажность 45%
Давление 1021 hPa
Видимость 10 км и более
Нет облачности ниже 1500 м, и нет кучево-дождевой облачности

METAR: LTCS 182350Z 04006KT CAVOK 18/06 Q1021 RMK RWY22 08008KT 2AC100 5CC180

Время: 03:15 (00:15 UTC)

Прогноз

Эта сводка был подготовлена 1 час и 35 минут назад, в 22:40 UTC
Прогноз действительный с 19-го 00 UTC до 19-го 24 UTC
Ветер 2 Узел переменных направлений
Видимость 10 км и более
небольшая облачность на высоте 4000 фута
Рассеянная облачность на высоте 18000 фута

TAF: LTCS 182240Z 1900/1924 VRB02KT 9999 FEW040 BKN180

Метеонаблюдения и прогнозы для более 4000 аэропортов (сводки METAR и TAF).

Имеющиеся станции представлены на карте желтыми и красными точками.

Чтобы увидеть название станции, наведите на нее мышь.

Затем щелкните, чтобы увидеть метеонаблюдения и метеопрогнозы.

Управление картой: чтобы увеличить масштаб, щелкните зеленые кнопки с черным крестиком; чтобы уменьшить масштаб, щелкните зеленую кнопку с тире; для просмотра соседних карт щелкайте зеленые стрелки.


METAR-TAF: